Terminal Aerodrome Forecast
Issued by NWS

Home | Current Version | Previous Version | Text Only | Print | Product List | Glossary On
Versions: 1 2 3 4 5 6 7 8 9 10 11 12 13 14 15 16 17 18 19 20 21
000
FTUS45 KTFX 261100
TAFGTF
TAF
KGTF 261120Z 2612/2712 VRB04KT 2SM -SN BR SCT010 BKN030
      TEMPO 2612/2615 1SM -SN BR BKN010
     FM261600 VRB05KT 4SM -SN BR SCT015 BKN030
      TEMPO 2617/2620 2SM -SN BR BKN015
     FM262000 VRB03KT 6SM -SHSN BR SCT025 BKN050
      TEMPO 2620/2623 3SM -SN BR BKN030
     FM270300 21008KT P6SM BKN070=

USA.gov is the U.S. government's official web portal to all federal, state and local government web resources and services.